Terminal Aerodrome Forecast
Issued by NWS Atlanta, GA

Current Version | Previous Version | Text Only | Print | Product List | Glossary On
Versions: 1 2 3 4 5 6 7 8 9 10 11 12
000
FTUS42 KFFC 200500
TAFCSG
TAF
KCSG 200538Z 2006/2106 00000KT P6SM SKC
      TEMPO 2009/2013 4SM BR
     FM201600 16003KT P6SM FEW250
     FM201800 23004KT P6SM FEW040 FEW250
     FM210000 00000KT P6SM SCT100=

USA.gov is the U.S. government's official web portal to all federal, state and local government web resources and services.